Time;durP1;ratioP1;P1;durP2;ratioP2;P2;SDS_P1;SDS_P2;PMS_P1;PMS_P2;Temp;Humidity;BMP_temperature;BMP_pressure;BME280_temperature;BME280_humidity;BME280_pressure;Samples;Min_cycle;Max_cycle;Signal;HPM_P1;HPM_P2
2022/03/09 00:02:27;;;;;;;1999.90;999.90;;;;;;;-1.06;43.67;102090.06;4982971;28;98862;-70
2022/03/09 00:04:54;;;;;;;1999.90;999.90;;;;;;;-1.10;43.53;102093.19;4990952;27;99236;-69
2022/03/09 00:07:24;;;;;;;1999.90;999.90;;;;;;;-1.11;43.56;102099.22;4994353;28;99202;-69
2022/03/09 00:09:51;;;;;;;1999.90;999.90;;;;;;;-1.11;43.40;102100.13;4988059;27;97781;-69
2022/03/09 00:12:19;;;;;;;1999.90;999.90;;;;;;;-1.12;43.19;102098.28;4978729;28;98808;-69
2022/03/09 00:14:48;;;;;;;1999.90;999.90;;;;;;;-1.12;43.00;102098.28;4996288;28;97961;-69
2022/03/09 00:17:16;;;;;;;1999.90;999.90;;;;;;;-1.14;43.41;102094.63;5007450;27;98221;-69
2022/03/09 00:19:44;;;;;;;1999.90;999.90;;;;;;;-1.15;42.76;102098.03;4990946;28;97960;-69
2022/03/09 00:22:12;;;;;;;1999.90;999.90;;;;;;;-1.19;43.41;102102.81;4985146;28;100252;-69
2022/03/09 00:24:40;;;;;;;1999.90;999.90;;;;;;;-1.22;43.70;102105.19;4988011;28;98880;-72
2022/03/09 00:27:08;;;;;;;1999.90;999.90;;;;;;;-1.24;43.71;102106.75;5013097;27;97897;-69
2022/03/09 00:29:37;;;;;;;1999.90;999.90;;;;;;;-1.26;43.43;102106.59;5011143;27;97049;-69
2022/03/09 00:32:08;;;;;;;1999.90;999.90;;;;;;;-1.34;43.23;102104.09;5010176;27;99673;-71
2022/03/09 00:34:36;;;;;;;1999.90;999.90;;;;;;;-1.37;44.06;102098.59;5014851;27;97626;-71
2022/03/09 00:37:04;;;;;;;1999.90;999.90;;;;;;;-1.38;43.48;102102.00;5006618;27;98240;-72
2022/03/09 00:39:34;;;;;;;1999.90;999.90;;;;;;;-1.39;43.78;102102.75;5007917;27;97163;-71
2022/03/09 00:42:02;;;;;;;1999.90;999.90;;;;;;;-1.43;43.52;102100.66;5010861;27;98291;-72
2022/03/09 00:44:30;;;;;;;1999.90;999.90;;;;;;;-1.48;44.08;102107.16;4998249;28;98482;-71
2022/03/09 00:46:58;;;;;;;1999.90;999.90;;;;;;;-1.49;44.15;102107.94;5021526;27;96970;-71
2022/03/09 00:49:27;;;;;;;1999.90;999.90;;;;;;;-1.52;43.53;102105.06;4991560;28;98532;-72
2022/03/09 00:51:56;;;;;;;1999.90;999.90;;;;;;;-1.56;44.05;102110.78;5021752;27;100837;-71
2022/03/09 00:54:24;;;;;;;1999.90;999.90;;;;;;;-1.60;44.01;102100.84;4996709;27;99102;-71
2022/03/09 00:56:52;;;;;;;1999.90;999.90;;;;;;;-1.62;43.77;102099.78;4996913;28;97703;-70
2022/03/09 00:59:21;;;;;;;1999.90;999.90;;;;;;;-1.64;44.08;102096.09;4996224;27;97576;-71
2022/03/09 01:01:49;;;;;;;1999.90;999.90;;;;;;;-1.66;44.15;102105.47;5009370;27;100326;-71
2022/03/09 01:04:17;;;;;;;1999.90;999.90;;;;;;;-1.70;44.09;102095.53;5007974;27;97742;-71
2022/03/09 01:06:46;;;;;;;1999.90;999.90;;;;;;;-1.77;44.23;102104.50;5018285;27;96805;-71
2022/03/09 01:09:14;;;;;;;1999.90;999.90;;;;;;;-1.78;44.47;102091.34;5016792;28;97491;-71
2022/03/09 01:11:42;;;;;;;1999.90;999.90;;;;;;;-1.79;44.48;102090.41;4999885;28;97129;-71
2022/03/09 01:14:10;;;;;;;1999.90;999.90;;;;;;;-1.78;44.36;102091.34;4993276;28;98876;-71
2022/03/09 01:16:37;;;;;;;1999.90;999.90;;;;;;;-1.79;44.91;102089.50;5013299;27;97804;-71
2022/03/09 01:19:05;;;;;;;1999.90;999.90;;;;;;;-1.79;44.15;102094.69;5016438;27;98905;-70
2022/03/09 01:21:32;;;;;;;1999.90;999.90;;;;;;;-1.81;44.33;102091.97;5020080;27;101115;-70
2022/03/09 01:24:01;;;;;;;1999.90;999.90;;;;;;;-1.82;44.46;102092.75;5019730;27;98129;-71
2022/03/09 01:26:29;;;;;;;1999.90;999.90;;;;;;;-1.84;44.56;102091.69;5006089;27;97741;-70
2022/03/09 01:28:57;;;;;;;1999.90;999.90;;;;;;;-1.85;44.43;102095.97;5010550;27;97247;-71
2022/03/09 01:31:25;;;;;;;1999.90;999.90;;;;;;;-1.90;45.13;102097.28;5007971;27;101103;-70
2022/03/09 01:33:52;;;;;;;1999.90;999.90;;;;;;;-1.97;45.28;102094.88;4995783;28;99309;-70
2022/03/09 01:36:20;;;;;;;1999.90;999.90;;;;;;;-2.02;45.28;102090.94;4988393;28;97073;-71
2022/03/09 01:38:51;;;;;;;1999.90;999.90;;;;;;;-2.03;44.49;102098.59;5006846;28;100089;-70
2022/03/09 01:41:20;;;;;;;1999.90;999.90;;;;;;;-2.04;44.93;102089.88;5017522;27;99619;-71
2022/03/09 01:44:06;;;;;;;1999.90;999.90;;;;;;;-2.05;45.55;102089.72;4998559;27;99296;-69
2022/03/09 01:46:34;;;;;;;1999.90;999.90;;;;;;;-2.02;45.08;102087.41;5018936;27;97691;-69
2022/03/09 01:49:02;;;;;;;1999.90;999.90;;;;;;;-2.01;45.34;102090.16;5018917;27;97855;-70
2022/03/09 01:51:31;;;;;;;1999.90;999.90;;;;;;;-2.02;44.65;102095.22;5000329;28;100902;-70
2022/03/09 01:53:59;;;;;;;1999.90;999.90;;;;;;;-2.02;45.33;102095.22;5012046;27;97936;-69
2022/03/09 01:56:28;;;;;;;1999.90;999.90;;;;;;;-2.04;44.87;102108.13;5014665;27;97804;-69
2022/03/09 01:58:56;;;;;;;1999.90;999.90;;;;;;;-2.08;44.95;102103.41;4998971;27;98608;-70
2022/03/09 02:01:24;;;;;;;1999.90;999.90;;;;;;;-2.09;45.16;102096.34;5006676;27;99332;-69
2022/03/09 02:03:52;;;;;;;1999.90;999.90;;;;;;;-2.08;45.07;102092.03;5012501;27;97178;-69
2022/03/09 02:06:20;;;;;;;1999.90;999.90;;;;;;;-2.09;44.84;102091.13;5008822;27;97373;-69
2022/03/09 02:11:35;;;;;;;1999.90;999.90;;;;;;;-2.11;45.39;102095.28;4990543;28;101908;-69
2022/03/09 02:14:03;;;;;;;1999.90;999.90;;;;;;;-2.11;45.03;102089.16;5011965;28;99068;-70
2022/03/09 02:16:31;;;;;;;1999.90;999.90;;;;;;;-2.13;45.57;102091.66;5013351;27;98311;-69
2022/03/09 02:19:02;;;;;;;1999.90;999.90;;;;;;;-2.13;45.47;102098.53;4973182;28;96843;-70
2022/03/09 02:21:31;;;;;;;1999.90;999.90;;;;;;;-2.13;45.03;102098.53;4971611;28;99523;-69
2022/03/09 02:24:01;;;;;;;1999.90;999.90;;;;;;;-2.14;45.00;102110.66;5010496;27;99383;-69
2022/03/09 02:26:29;;;;;;;1999.90;999.90;;;;;;;-2.16;45.30;102101.75;5016117;28;97685;-70
2022/03/09 02:28:56;;;;;;;1999.90;999.90;;;;;;;-2.16;45.07;102100.84;5011181;27;97233;-70
2022/03/09 02:31:24;;;;;;;1999.90;999.90;;;;;;;-2.15;45.23;102105.28;4995934;27;97800;-69
2022/03/09 02:33:52;;;;;;;1999.90;999.90;;;;;;;-2.17;44.90;102104.25;5018017;27;98798;-70
2022/03/09 02:36:20;;;;;;;1999.90;999.90;;;;;;;-2.18;44.77;102100.66;4997647;27;98567;-70
2022/03/09 02:38:47;;;;;;;1999.90;999.90;;;;;;;-2.21;45.00;102105.63;5009892;27;97483;-69
2022/03/09 02:41:17;;;;;;;1999.90;999.90;;;;;;;-2.25;44.67;102103.50;5009172;28;99231;-70
2022/03/09 02:43:44;;;;;;;1999.90;999.90;;;;;;;-2.28;45.35;102100.59;5009089;27;97722;-70
2022/03/09 02:46:12;;;;;;;1999.90;999.90;;;;;;;-2.28;44.86;102102.28;5015034;28;97745;-70
2022/03/09 02:48:40;;;;;;;1999.90;999.90;;;;;;;-2.32;45.31;102093.28;4998474;28;96710;-70
2022/03/09 02:51:10;;;;;;;1999.90;999.90;;;;;;;-2.33;45.48;102090.53;5019722;28;96750;-69
2022/03/09 02:53:38;;;;;;;1999.90;999.90;;;;;;;-2.38;45.04;102087.47;4988752;28;99196;-69
2022/03/09 02:56:06;;;;;;;1999.90;999.90;;;;;;;-2.42;45.36;102085.38;5000809;28;96993;-70
2022/03/09 02:58:36;;;;;;;1999.90;999.90;;;;;;;-2.44;45.54;102084.31;4998737;27;97828;-68
2022/03/09 03:01:04;;;;;;;1999.90;999.90;;;;;;;-2.46;45.77;102090.16;4978054;27;97810;-70
2022/03/09 03:03:32;;;;;;;1999.90;999.90;;;;;;;-2.50;45.71;102094.16;5007274;27;100473;-70
2022/03/09 03:06:00;;;;;;;1999.90;999.90;;;;;;;-2.60;45.94;102094.06;4997906;28;97638;-70
2022/03/09 03:08:28;;;;;;;1999.90;999.90;;;;;;;-2.66;45.96;102101.31;5006661;27;99782;-70
2022/03/09 03:10:56;;;;;;;1999.90;999.90;;;;;;;-2.69;45.65;102097.50;4998338;27;98524;-69
2022/03/09 03:13:24;;;;;;;1999.90;999.90;;;;;;;-2.71;45.89;102097.38;5007911;27;99298;-70
2022/03/09 03:15:53;;;;;;;1999.90;999.90;;;;;;;-2.70;45.83;102095.66;5017266;27;96792;-70
2022/03/09 03:18:21;;;;;;;1999.90;999.90;;;;;;;-2.71;46.42;102088.63;5007764;27;97760;-69
2022/03/09 03:20:49;;;;;;;1999.90;999.90;;;;;;;-2.71;46.37;102086.94;5018959;27;97130;-69
2022/03/09 03:23:17;;;;;;;1999.90;999.90;;;;;;;-2.72;45.51;102087.69;4989569;28;99190;-69
2022/03/09 03:25:45;;;;;;;1999.90;999.90;;;;;;;-2.71;46.09;102084.34;5017310;27;98128;-69
2022/03/09 03:28:12;;;;;;;1999.90;999.90;;;;;;;-2.69;45.71;102085.38;5019645;27;96860;-70
2022/03/09 03:30:40;;;;;;;1999.90;999.90;;;;;;;-2.69;45.60;102092.28;5022635;28;97626;-69
2022/03/09 03:33:09;;;;;;;1999.90;999.90;;;;;;;-2.72;45.71;102092.91;5016743;27;98975;-69
2022/03/09 03:35:37;;;;;;;1999.90;999.90;;;;;;;-2.73;46.11;102090.16;5018283;28;96818;-69
2022/03/09 03:38:05;;;;;;;1999.90;999.90;;;;;;;-2.75;45.56;102096.91;5006267;27;98474;-71
2022/03/09 03:40:32;;;;;;;1999.90;999.90;;;;;;;-2.77;46.21;102096.78;5013334;27;97969;-71
2022/03/09 03:43:00;;;;;;;1999.90;999.90;;;;;;;-2.78;46.59;102099.25;5004310;28;98719;-69
2022/03/09 03:45:28;;;;;;;1999.90;999.90;;;;;;;-2.82;46.50;102113.66;5004872;27;99986;-70
2022/03/09 03:47:56;;;;;;;1999.90;999.90;;;;;;;-2.85;46.32;102115.94;4986488;28;96995;-70
2022/03/09 03:50:25;;;;;;;1999.90;999.90;;;;;;;-2.86;46.22;102115.06;4996434;27;99864;-70
2022/03/09 03:52:53;;;;;;;1999.90;999.90;;;;;;;-2.85;46.28;102108.13;5007225;27;98747;-70
2022/03/09 03:55:20;;;;;;;1999.90;999.90;;;;;;;-2.88;46.50;102110.47;5012469;27;97341;-70
2022/03/09 03:57:48;;;;;;;1999.90;999.90;;;;;;;-2.88;46.34;102113.06;4996571;28;99630;-69
2022/03/09 04:00:16;;;;;;;1999.90;999.90;;;;;;;-2.87;46.13;102117.47;5007206;28;98730;-69
2022/03/09 04:02:44;;;;;;;1999.90;999.90;;;;;;;-2.86;46.67;102124.53;5020097;27;99401;-69
2022/03/09 04:05:12;;;;;;;1999.90;999.90;;;;;;;-2.88;46.28;102121.81;5008767;27;97749;-69
2022/03/09 04:07:41;;;;;;;1999.90;999.90;;;;;;;-2.89;46.48;102124.22;4999491;28;96974;-70
2022/03/09 04:10:09;;;;;;;1999.90;999.90;;;;;;;-2.88;46.44;102126.09;5016782;27;98373;-69
2022/03/09 04:12:36;;;;;;;1999.90;999.90;;;;;;;-2.89;46.55;102124.22;5017855;27;97784;-69
2022/03/09 04:15:05;;;;;;;1999.90;999.90;;;;;;;-2.91;46.35;102123.19;5005139;28;97497;-69
2022/03/09 04:17:39;;;;;;;1999.90;999.90;;;;;;;-2.96;46.66;102122.75;5011403;27;98628;-70
2022/03/09 04:20:08;;;;;;;1999.90;999.90;;;;;;;-2.96;46.64;102122.75;5011038;27;100098;-70
2022/03/09 04:22:36;;;;;;;1999.90;999.90;;;;;;;-2.98;46.37;102125.97;5019796;27;98202;-70
2022/03/09 04:25:08;;;;;;;1999.90;999.90;;;;;;;-3.01;46.32;102120.47;5012504;27;97301;-69
2022/03/09 04:27:36;;;;;;;1999.90;999.90;;;;;;;-3.03;46.19;102122.94;5016379;27;96774;-69
2022/03/09 04:30:08;;;;;;;1999.90;999.90;;;;;;;-3.03;46.43;102130.75;4993237;27;98993;-70
2022/03/09 04:32:36;;;;;;;1999.90;999.90;;;;;;;-3.04;46.36;102128.88;5020289;27;97749;-70
2022/03/09 04:35:06;;;;;;;1999.90;999.90;;;;;;;-3.05;46.94;102115.72;5004117;28;96940;-69
2022/03/09 04:37:36;;;;;;;1999.90;999.90;;;;;;;-3.07;46.64;102120.78;5014954;27;97752;-70
2022/03/09 04:40:08;;;;;;;1999.90;999.90;;;;;;;-3.09;46.14;102124.00;5011498;28;97916;-68
2022/03/09 04:42:35;;;;;;;1999.90;999.90;;;;;;;-3.11;46.57;102117.75;4987936;28;100033;-69
2022/03/09 04:45:03;;;;;;;1999.90;999.90;;;;;;;-3.12;46.69;102121.13;5014792;27;97460;-70
2022/03/09 04:47:31;;;;;;;1999.90;999.90;;;;;;;-3.15;46.43;102119.13;5018945;27;97951;-70
2022/03/09 04:49:59;;;;;;;1999.90;999.90;;;;;;;-3.17;46.46;102125.91;5010851;27;98507;-70
2022/03/09 04:52:27;;;;;;;1999.90;999.90;;;;;;;-3.19;46.64;102121.28;5017447;27;99002;-70
2022/03/09 04:54:54;;;;;;;1999.90;999.90;;;;;;;-3.21;46.50;102118.56;5014891;27;96754;-70
2022/03/09 04:57:23;;;;;;;1999.90;999.90;;;;;;;-3.23;46.44;102113.94;5014551;27;99037;-69
2022/03/09 04:59:51;;;;;;;1999.90;999.90;;;;;;;-3.24;46.40;102117.34;5012606;27;98847;-70
2022/03/09 05:02:19;;;;;;;1999.90;999.90;;;;;;;-3.25;46.67;102123.28;4992872;28;97088;-70
2022/03/09 05:04:48;;;;;;;1999.90;999.90;;;;;;;-3.29;46.88;102123.75;5009892;27;97585;-69
2022/03/09 05:07:15;;;;;;;1999.90;999.90;;;;;;;-3.34;46.43;102122.41;5009161;27;97261;-69
2022/03/09 05:09:43;;;;;;;1999.90;999.90;;;;;;;-3.37;46.73;102122.13;5007536;27;98683;-70
2022/03/09 05:12:11;;;;;;;1999.90;999.90;;;;;;;-3.38;46.72;102131.59;5015984;27;97561;-70
2022/03/09 05:14:40;;;;;;;1999.90;999.90;;;;;;;-3.39;46.69;102131.44;5000448;28;96991;-69
2022/03/09 05:17:07;;;;;;;1999.90;999.90;;;;;;;-3.39;47.02;102131.44;5013629;27;96859;-70
2022/03/09 05:19:35;;;;;;;1999.90;999.90;;;;;;;-3.42;46.81;102133.75;5012603;27;101925;-68
2022/03/09 05:22:03;;;;;;;1999.90;999.90;;;;;;;-3.44;46.89;102130.97;4995193;28;99647;-69
2022/03/09 05:24:41;;;;;;;1999.90;999.90;;;;;;;-3.47;46.75;102127.16;4984571;28;97670;-69
2022/03/09 05:27:09;;;;;;;1999.90;999.90;;;;;;;-3.47;46.71;102132.38;5012865;28;97642;-70
2022/03/09 05:29:40;;;;;;;1999.90;999.90;;;;;;;-3.50;46.92;102132.09;4996575;27;100428;-70
2022/03/09 05:32:08;;;;;;;1999.90;999.90;;;;;;;-3.52;46.96;102131.00;5005413;27;100079;-69
2022/03/09 05:34:39;;;;;;;1999.90;999.90;;;;;;;-3.53;46.95;102130.09;5014376;27;98445;-70
2022/03/09 05:37:06;;;;;;;1999.90;999.90;;;;;;;-3.56;47.11;102131.47;5003366;28;97067;-70
2022/03/09 05:39:34;;;;;;;1999.90;999.90;;;;;;;-3.59;46.86;102141.59;5010597;27;97937;-70
2022/03/09 05:42:02;;;;;;;1999.90;999.90;;;;;;;-3.62;46.99;102146.50;5001675;28;98774;-69
2022/03/09 05:44:30;;;;;;;1999.90;999.90;;;;;;;-3.62;46.94;102152.59;5018405;27;97404;-69
2022/03/09 05:46:59;;;;;;;1999.90;999.90;;;;;;;-3.62;46.91;102159.50;5011386;27;97733;-70
2022/03/09 05:49:27;;;;;;;1999.90;999.90;;;;;;;-3.62;46.78;102154.31;5015715;27;98859;-70
2022/03/09 05:51:54;;;;;;;1999.90;999.90;;;;;;;-3.62;47.12;102156.91;4992108;27;98301;-70
2022/03/09 05:54:22;;;;;;;1999.90;999.90;;;;;;;-3.62;46.93;102156.91;5014629;27;97283;-69
2022/03/09 05:56:50;;;;;;;1999.90;999.90;;;;;;;-3.60;46.62;102150.16;5004321;27;97613;-70
2022/03/09 05:59:18;;;;;;;1999.90;999.90;;;;;;;-3.62;46.84;102151.69;4994340;28;97372;-69
2022/03/09 06:01:46;;;;;;;1999.90;999.90;;;;;;;-3.63;47.05;102157.66;5007754;27;99137;-69
2022/03/09 06:04:15;;;;;;;1999.90;999.90;;;;;;;-3.64;47.03;102158.44;5007346;27;97112;-70
2022/03/09 06:06:43;;;;;;;1999.90;999.90;;;;;;;-3.65;46.90;102164.38;5011310;27;97374;-69
2022/03/09 06:09:11;;;;;;;1999.90;999.90;;;;;;;-3.67;47.01;102168.50;5006625;27;97480;-68
2022/03/09 06:11:41;;;;;;;1999.90;999.90;;;;;;;-3.69;46.91;102164.81;5012945;28;97927;-68
2022/03/09 06:14:08;;;;;;;1999.90;999.90;;;;;;;-3.69;47.17;102170.03;5006794;27;100005;-69
2022/03/09 06:16:37;;;;;;;1999.90;999.90;;;;;;;-3.69;47.22;102181.38;5017887;27;97015;-69
2022/03/09 06:19:04;;;;;;;1999.90;999.90;;;;;;;-3.68;47.14;102182.28;4997230;28;98954;-69
2022/03/09 06:21:33;;;;;;;1999.90;999.90;;;;;;;-3.69;46.92;102178.75;4998212;28;97941;-69
2022/03/09 06:24:02;;;;;;;1999.90;999.90;;;;;;;-3.70;47.27;102183.81;5016235;28;97281;-68
2022/03/09 06:26:30;;;;;;;1999.90;999.90;;;;;;;-3.71;47.10;102190.69;5015085;27;97752;-69
2022/03/09 06:28:57;;;;;;;1999.90;999.90;;;;;;;-3.70;47.03;102192.53;5016123;27;97804;-69
2022/03/09 06:31:25;;;;;;;1999.90;999.90;;;;;;;-3.70;46.74;102192.53;4996578;28;99391;-69
2022/03/09 06:33:56;;;;;;;1999.90;999.90;;;;;;;-3.67;46.74;102197.13;5007348;27;97259;-69
2022/03/09 06:36:24;;;;;;;1999.90;999.90;;;;;;;-3.68;47.07;102200.50;5016279;28;97926;-69
2022/03/09 06:38:53;;;;;;;1999.90;999.90;;;;;;;-3.70;47.05;102204.63;5003334;28;100741;-70
2022/03/09 06:41:21;;;;;;;1999.90;999.90;;;;;;;-3.68;46.92;102204.03;5026498;27;99440;-69
2022/03/09 06:43:49;;;;;;;1999.90;999.90;;;;;;;-3.65;47.01;102188.72;5000729;28;97391;-69
2022/03/09 06:46:16;;;;;;;1999.90;999.90;;;;;;;-3.65;47.07;102203.38;5011259;27;97053;-69
2022/03/09 06:48:44;;;;;;;1999.90;999.90;;;;;;;-3.63;47.16;102199.25;4998822;27;100475;-69
2022/03/09 06:51:12;;;;;;;1999.90;999.90;;;;;;;-3.61;47.01;102200.34;5017034;27;97792;-69
2022/03/09 06:53:40;;;;;;;1999.90;999.90;;;;;;;-3.57;47.04;102197.28;5014040;27;96785;-69
2022/03/09 06:56:09;;;;;;;1999.90;999.90;;;;;;;-3.53;46.94;102200.31;5000063;28;97053;-69
2022/03/09 06:58:38;;;;;;;1999.90;999.90;;;;;;;-3.48;47.10;102193.91;5010938;27;97803;-69
2022/03/09 07:01:05;;;;;;;1999.90;999.90;;;;;;;-3.45;46.84;102193.28;5005282;27;99466;-69
2022/03/09 07:03:35;;;;;;;1999.90;999.90;;;;;;;-3.41;46.90;102203.25;5022409;27;97597;-69
2022/03/09 07:06:03;;;;;;;1999.90;999.90;;;;;;;-3.36;46.99;102204.59;4969299;28;98084;-71
2022/03/09 07:08:31;;;;;;;1999.90;999.90;;;;;;;-3.33;46.74;102194.53;5012460;27;97791;-71
2022/03/09 07:10:59;;;;;;;1999.90;999.90;;;;;;;-3.29;47.11;102194.03;5013352;27;97701;-70
2022/03/09 07:13:29;;;;;;;1999.90;999.90;;;;;;;-3.27;46.85;102198.63;5004962;28;98990;-69
2022/03/09 07:15:57;;;;;;;1999.90;999.90;;;;;;;-3.23;46.87;102197.25;5006583;27;97423;-69
2022/03/09 07:18:25;;;;;;;1999.90;999.90;;;;;;;-3.22;47.18;102204.31;5000520;28;99864;-69
2022/03/09 07:20:53;;;;;;;1999.90;999.90;;;;;;;-3.18;47.10;102201.19;5000709;28;98618;-69
2022/03/09 07:23:21;;;;;;;1999.90;999.90;;;;;;;-3.16;47.03;102203.19;5015656;27;97829;-70
2022/03/09 07:25:49;;;;;;;1999.90;999.90;;;;;;;-3.11;46.78;102198.47;4999244;28;97803;-69
2022/03/09 07:28:17;;;;;;;1999.90;999.90;;;;;;;-3.07;46.84;102200.56;5002239;28;97469;-69
2022/03/09 07:30:46;;;;;;;1999.90;999.90;;;;;;;-3.01;46.59;102203.78;5019472;28;97975;-69
2022/03/09 07:33:15;;;;;;;1999.90;999.90;;;;;;;-2.96;46.42;102206.06;5015386;27;96997;-69
2022/03/09 07:35:45;;;;;;;1999.90;999.90;;;;;;;-2.92;47.00;102203.00;5020947;28;97007;-68
2022/03/09 07:38:13;;;;;;;1999.90;999.90;;;;;;;-2.87;46.39;102211.25;5019790;27;97028;-69
2022/03/09 07:40:41;;;;;;;1999.90;999.90;;;;;;;-2.82;46.43;102212.63;5004576;28;101039;-69
2022/03/09 07:43:09;;;;;;;1999.90;999.90;;;;;;;-2.82;46.33;102215.25;4999468;28;100245;-69
2022/03/09 07:45:36;;;;;;;1999.90;999.90;;;;;;;-2.79;46.55;102209.38;5020262;28;96856;-69
2022/03/09 07:48:06;;;;;;;1999.90;999.90;;;;;;;-2.73;46.18;102210.00;5012574;28;98448;-69
2022/03/09 07:50:33;;;;;;;1999.90;999.90;;;;;;;-2.71;46.20;102208.44;5005134;28;97678;-69
2022/03/09 07:53:02;;;;;;;1999.90;999.90;;;;;;;-2.72;46.13;102210.13;5000649;27;96893;-69
2022/03/09 07:55:30;;;;;;;1999.90;999.90;;;;;;;-2.66;46.55;102213.34;5018757;27;97084;-69
2022/03/09 07:57:57;;;;;;;1999.90;999.90;;;;;;;-2.61;46.56;102212.09;5016901;27;97631;-69
2022/03/09 08:00:25;;;;;;;1999.90;999.90;;;;;;;-2.55;46.03;102207.47;5021158;27;97813;-69
2022/03/09 08:02:53;;;;;;;1999.90;999.90;;;;;;;-2.48;46.38;102208.97;5021462;27;97498;-69
2022/03/09 08:05:44;;;;;;;1999.90;999.90;;;;;;;-2.42;45.77;102209.56;5018683;27;96759;-70
2022/03/09 08:08:11;;;;;;;1999.90;999.90;;;;;;;-2.35;46.07;102201.53;5020411;28;96985;-67
2022/03/09 08:10:39;;;;;;;1999.90;999.90;;;;;;;-2.29;46.12;102213.47;5006634;28;98632;-71
2022/03/09 08:13:08;;;;;;;1999.90;999.90;;;;;;;-2.23;45.44;102214.03;5019090;27;96939;-69
2022/03/09 08:15:37;;;;;;;1999.90;999.90;;;;;;;-2.17;46.04;102213.75;5010703;27;97621;-69
2022/03/09 08:18:05;;;;;;;1999.90;999.90;;;;;;;-2.12;45.42;102208.19;5008358;27;99596;-69
2022/03/09 08:20:32;;;;;;;1999.90;999.90;;;;;;;-2.06;45.39;102210.47;5020788;27;97562;-70
2022/03/09 08:23:01;;;;;;;1999.90;999.90;;;;;;;-2.02;46.06;102208.31;5019266;27;98840;-69
2022/03/09 08:25:30;;;;;;;1999.90;999.90;;;;;;;-1.96;45.59;102211.47;5019041;27;97109;-69
2022/03/09 08:28:00;;;;;;;1999.90;999.90;;;;;;;-1.88;45.67;102204.34;5001164;28;99653;-67
2022/03/09 08:30:28;;;;;;;1999.90;999.90;;;;;;;-1.82;45.62;102209.22;4985768;28;99675;-69
2022/03/09 08:32:56;;;;;;;1999.90;999.90;;;;;;;-1.75;45.75;102201.19;5011309;27;97154;-69
2022/03/09 08:35:30;;;;;;;1999.90;999.90;;;;;;;-1.68;45.74;102203.59;5013152;28;96971;-69
2022/03/09 08:37:57;;;;;;;1999.90;999.90;;;;;;;-1.62;45.81;102193.72;5021827;27;98957;-70
2022/03/09 08:40:26;;;;;;;1999.90;999.90;;;;;;;-1.55;45.32;102197.03;5010406;27;98453;-69
2022/03/09 08:42:54;;;;;;;1999.90;999.90;;;;;;;-1.47;45.18;102196.03;5020557;27;96758;-69
2022/03/09 08:45:22;;;;;;;1999.90;999.90;;;;;;;-1.41;45.29;102200.88;5002210;28;97698;-69
2022/03/09 08:47:49;;;;;;;1999.90;999.90;;;;;;;-1.34;45.56;102201.59;5022970;27;97942;-70
2022/03/09 08:50:19;;;;;;;1999.90;999.90;;;;;;;-1.26;45.44;102199.69;5009473;27;100679;-68
2022/03/09 08:53:07;;;;;;;1999.90;999.90;;;;;;;-1.17;44.92;102203.13;5020479;27;96907;-69
2022/03/09 08:55:37;;;;;;;1999.90;999.90;;;;;;;-1.08;45.24;102202.28;5010326;27;99337;-69
2022/03/09 08:58:04;;;;;;;1999.90;999.90;;;;;;;-1.00;44.89;102200.34;5003383;28;100155;-70
2022/03/09 09:00:32;;;;;;;1999.90;999.90;;;;;;;-0.93;44.34;102202.72;5018624;27;96896;-69
2022/03/09 09:03:01;;;;;;;1999.90;999.90;;;;;;;-0.85;44.34;102209.56;4996084;28;97081;-70
2022/03/09 09:05:29;;;;;;;1999.90;999.90;;;;;;;-0.79;44.64;102204.84;5006116;27;97152;-69
2022/03/09 09:07:57;;;;;;;1999.90;999.90;;;;;;;-0.71;44.46;102213.38;5020675;27;101871;-70
2022/03/09 09:10:33;;;;;;;1999.90;999.90;;;;;;;-0.65;44.52;102209.63;5011644;27;98885;-69
2022/03/09 09:13:02;;;;;;;1999.90;999.90;;;;;;;-0.59;44.50;102210.16;5012228;27;97083;-70
2022/03/09 09:15:29;;;;;;;1999.90;999.90;;;;;;;-0.53;44.58;102210.72;5012142;27;97367;-69
2022/03/09 09:17:58;;;;;;;1999.90;999.90;;;;;;;-0.44;44.19;102208.91;5017331;27;97861;-71
2022/03/09 09:20:46;;;;;;;1999.90;999.90;;;;;;;-0.35;43.92;102214.94;5003954;28;99234;-68
2022/03/09 09:23:13;;;;;;;1999.90;999.90;;;;;;;-0.25;44.30;102214.97;5019420;27;97503;-69
2022/03/09 09:25:44;;;;;;;1999.90;999.90;;;;;;;-0.15;43.77;102209.72;5020279;27;97252;-69
2022/03/09 09:28:14;;;;;;;1999.90;999.90;;;;;;;-0.09;43.80;102211.97;5020299;27;99401;-68
2022/03/09 09:30:42;;;;;;;1999.90;999.90;;;;;;;-0.00;43.53;102207.53;5019217;27;96871;-68
2022/03/09 09:33:10;;;;;;;1999.90;999.90;;;;;;;0.06;43.36;102201.09;5010245;27;97472;-69
2022/03/09 09:35:38;;;;;;;1999.90;999.90;;;;;;;0.14;43.79;102210.53;5009645;27;97116;-69
2022/03/09 09:38:09;;;;;;;1999.90;999.90;;;;;;;0.20;43.42;102205.81;5019154;27;97335;-69
2022/03/09 09:40:41;;;;;;;1999.90;999.90;;;;;;;0.28;43.58;102200.34;5011014;27;97594;-68
2022/03/09 09:43:10;;;;;;;1999.90;999.90;;;;;;;0.35;43.30;102205.31;5016321;27;96755;-69
2022/03/09 09:45:40;;;;;;;1999.90;999.90;;;;;;;0.41;43.53;102204.13;4994221;28;96884;-69
2022/03/09 09:48:09;;;;;;;1999.90;999.90;;;;;;;0.47;43.35;102214.19;5013926;27;99378;-70
2022/03/09 09:50:37;;;;;;;1999.90;999.90;;;;;;;0.52;43.28;102212.91;5008005;27;99119;-69
2022/03/09 09:53:06;;;;;;;1999.90;999.90;;;;;;;0.59;43.44;102207.38;5022792;27;97375;-69
2022/03/09 09:55:34;;;;;;;1999.90;999.90;;;;;;;0.66;43.28;102212.34;5008820;28;97257;-69
2022/03/09 09:58:03;;;;;;;1999.90;999.90;;;;;;;0.72;43.30;102207.63;4990730;28;100818;-69
2022/03/09 10:00:31;;;;;;;1999.90;999.90;;;;;;;0.74;43.15;102211.28;5009796;27;99978;-69
2022/03/09 10:03:04;;;;;;;1999.90;999.90;;;;;;;0.78;43.07;102208.09;5003722;27;97631;-69
2022/03/09 10:05:32;;;;;;;1999.90;999.90;;;;;;;0.84;43.17;102206.00;5017361;27;96894;-70
2022/03/09 10:08:18;;;;;;;1999.90;999.90;;;;;;;0.90;43.39;102203.91;4999928;28;100941;-69
2022/03/09 10:10:57;;;;;;;1999.90;999.90;;;;;;;0.98;43.01;102198.50;5021133;27;100742;-69
2022/03/09 10:13:27;;;;;;;1999.90;999.90;;;;;;;1.09;42.79;102191.50;4991829;28;100139;-69
2022/03/09 10:16:10;;;;;;;1999.90;999.90;;;;;;;1.14;43.26;102198.06;5003346;27;97469;-71
2022/03/09 10:18:40;;;;;;;1999.90;999.90;;;;;;;1.23;42.30;102202.31;5002312;28;100812;-70
2022/03/09 10:21:12;;;;;;;1999.90;999.90;;;;;;;1.31;42.63;102196.75;5018076;27;97603;-69
2022/03/09 10:23:53;;;;;;;1999.90;999.90;;;;;;;1.37;42.60;102192.94;5019054;27;96786;-69
2022/03/09 10:26:23;;;;;;;1999.90;999.90;;;;;;;1.45;42.88;102196.19;5017620;27;97310;-70
2022/03/09 10:28:56;;;;;;;1999.90;999.90;;;;;;;1.51;41.83;102197.56;4990536;28;99565;-70
2022/03/09 10:31:37;;;;;;;1999.90;999.90;;;;;;;1.58;42.53;102202.50;4983188;28;96895;-70
2022/03/09 10:34:09;;;;;;;1999.90;999.90;;;;;;;1.64;42.39;102191.59;5009561;28;97230;-71
2022/03/09 10:36:37;;;;;;;1999.90;999.90;;;;;;;1.71;41.83;102196.53;5012799;27;96910;-68
2022/03/09 10:39:12;;;;;;;1999.90;999.90;;;;;;;1.75;41.89;102201.22;5024479;27;97748;-69
2022/03/09 10:41:40;;;;;;;1999.90;999.90;;;;;;;1.83;42.00;102193.19;5020783;27;98970;-70
2022/03/09 10:44:08;;;;;;;1999.90;999.90;;;;;;;1.90;41.52;102203.38;5011346;27;98387;-69
2022/03/09 10:46:42;;;;;;;1999.90;999.90;;;;;;;1.95;41.67;102191.50;4993775;28;96934;-72
2022/03/09 10:49:12;;;;;;;1999.90;999.90;;;;;;;2.05;41.25;102194.03;5021527;27;98726;-69
2022/03/09 10:51:42;;;;;;;1999.90;999.90;;;;;;;2.12;41.13;102183.28;5019300;27;98125;-69
2022/03/09 10:54:16;;;;;;;1999.90;999.90;;;;;;;2.18;41.74;102188.97;5019715;27;96967;-70
2022/03/09 10:56:44;;;;;;;1999.90;999.90;;;;;;;2.27;41.29;102187.88;5000527;28;97776;-70
2022/03/09 10:59:16;;;;;;;1999.90;999.90;;;;;;;2.35;40.65;102191.97;4991098;28;98655;-69